»·PEaware :: AAL1026 KMIA-MYNN

AAL1026 :: KMIA-MYNN

FLIGHT INFORMATION

Flight Status: Arrived
Operator:
American Airlines
More flights by this operator :: More flights under this callsign
Pilot: Justin Z. (25672)
Aircraft: BOEING 767-300
(B763)
More flights by this aircraft type
Origin: KMIA Miami Intl
United States
Destination: MYNN Nassau Intl
Bahamas
More flights between these airports :: More routes between these airports
Route: SKIPS2 SKIPS RAJAY
File this flight plan on PilotEdge
Remarks:
Altitude:
(Current/Filed)
25,000ft
Speed:
(Current/Filed)
450kts
Departed: 28-Mar-20 01:49 AM
Arrived: 28-Mar-20 02:24 AM
Distance/Time
Traveled:
159nm/0:35
Distance/Time
To Go:
Arrived

Flight Plot

Page will automatically refresh every two minutes.


Map Options




Map Legend


Flown Route
Filed Route
Departure Airport
Arrival Airport
Navaid (VOR, NDB)
Fix

Horizontal Profiles

Position Reports

Time Latitude Longitude Heading Altitude Ground
Speed
28-Mar-20 01:28 25.795296 -80.287311 0 15ft 0kts
28-Mar-20 01:29 25.795296 -80.287311 179 15ft 0kts
28-Mar-20 01:30 25.795296 -80.287311 179 15ft 0kts
28-Mar-20 01:32 25.795296 -80.287311 179 15ft 0kts
28-Mar-20 01:33 25.795296 -80.287311 179 15ft 0kts
28-Mar-20 01:34 25.795296 -80.287311 179 15ft 0kts
28-Mar-20 01:35 25.795296 -80.287311 179 15ft 0kts
28-Mar-20 01:36 25.795296 -80.287311 179 15ft 0kts
28-Mar-20 01:37 25.795296 -80.287311 179 15ft 0kts
28-Mar-20 01:38 25.795296 -80.287311 179 15ft 0kts
28-Mar-20 01:39 25.795296 -80.287311 179 15ft 0kts
28-Mar-20 01:40 25.795296 -80.287311 179 15ft 0kts
28-Mar-20 01:41 25.795296 -80.287311 179 15ft 0kts
28-Mar-20 01:42 25.795296 -80.287311 179 15ft 0kts
28-Mar-20 01:43 25.795296 -80.287311 179 15ft 0kts
28-Mar-20 01:44 25.795289 -80.287311 181 15ft 0kts
28-Mar-20 01:45 25.799982 -80.288531 301 15ft 20kts
28-Mar-20 01:46 25.799770 -80.301448 310 15ft 33kts
28-Mar-20 01:47 25.800717 -80.300576 86 15ft 0kts
28-Mar-20 01:48 25.800717 -80.300576 86 15ft 0kts
28-Mar-20 01:49 25.801749 -80.269458 92 1230ft 169kts
28-Mar-20 01:49 25.786359 -80.227003 120 2169ft 214kts
28-Mar-20 01:51 25.752692 -80.153271 111 4208ft 250kts
28-Mar-20 01:52 25.731178 -80.078531 106 7494ft 261kts
28-Mar-20 01:52 25.713152 -80.013088 105 10244ft 272kts
28-Mar-20 01:54 25.689135 -79.897591 100 12702ft 358kts
28-Mar-20 01:54 25.670981 -79.806536 100 15591ft 374kts
28-Mar-20 01:56 25.643192 -79.671051 100 19360ft 398kts
28-Mar-20 01:56 25.620351 -79.569062 100 21103ft 423kts
28-Mar-20 01:57 25.592037 -79.443217 100 21098ft 418kts
28-Mar-20 01:58 25.563788 -79.318080 101 21101ft 418kts
28-Mar-20 01:59 25.535569 -79.194266 101 21101ft 411kts
28-Mar-20 02:00 25.509391 -79.080226 100 20154ft 390kts
28-Mar-20 02:01 25.482748 -78.964517 100 18293ft 374kts
28-Mar-20 02:02 25.457223 -78.854094 101 16528ft 363kts
28-Mar-20 02:03 25.432302 -78.746679 101 14804ft 353kts
28-Mar-20 02:04 25.408128 -78.642847 101 13124ft 344kts
28-Mar-20 02:05 25.396201 -78.540540 93 11604ft 333kts
28-Mar-20 02:06 25.386822 -78.439372 93 10130ft 325kts
28-Mar-20 02:07 25.377970 -78.347681 94 8881ft 275kts
28-Mar-20 02:08 25.370066 -78.266091 94 8102ft 261kts
28-Mar-20 02:09 25.362290 -78.186428 94 7361ft 258kts
28-Mar-20 02:10 25.354557 -78.107669 94 6597ft 256kts
28-Mar-20 02:11 25.346926 -78.030385 95 5828ft 253kts
28-Mar-20 02:12 25.339263 -77.953193 95 5049ft 251kts
28-Mar-20 02:13 25.331679 -77.877263 95 4488ft 232kts
28-Mar-20 02:14 25.303480 -77.817306 121 3987ft 217kts
28-Mar-20 02:15 25.269939 -77.761461 122 3222ft 216kts
28-Mar-20 02:16 25.237675 -77.708086 122 2625ft 206kts
28-Mar-20 02:17 25.206982 -77.657275 123 2122ft 177kts
28-Mar-20 02:18 25.175764 -77.615089 130 1915ft 177kts
28-Mar-20 02:19 25.141718 -77.575668 132 1706ft 166kts
28-Mar-20 02:20 25.113103 -77.543682 132 1693ft 144kts
28-Mar-20 02:21 25.085508 -77.513075 133 979ft 134kts
28-Mar-20 02:22 25.059264 -77.483867 133 274ft 133kts
28-Mar-20 02:23 25.039259 -77.461686 134 27ft 9kts
28-Mar-20 02:24 25.040457 -77.460538 314 27ft 36kts
28-Mar-20 02:25 25.047333 -77.466809 294 27ft 20kts
28-Mar-20 02:26 25.048131 -77.467398 317 27ft 0kts
28-Mar-20 02:27 25.048131 -77.467398 317 27ft 0kts
28-Mar-20 02:28 25.048131 -77.467398 317 27ft 0kts
28-Mar-20 02:29 25.048131 -77.467398 317 27ft 0kts

Navigation Log

Ident Type
Flight plan parsing failed, navigation log unavailable